Time;durP1;ratioP1;P1;durP2;ratioP2;P2;SDS_P1;SDS_P2;PMS_P1;PMS_P2;Temp;Humidity;BMP_temperature;BMP_pressure;BME280_temperature;BME280_humidity;BME280_pressure;Samples;Min_cycle;Max_cycle;Signal;HPM_P1;HPM_P2
2023/06/12 00:01:28;;;;;;;9.90;7.70;;;;;;;-128.00;-1.00;-1.00;102541;1260;1005224;-81
2023/06/12 00:03:57;;;;;;;13.30;7.90;;;;;;;-128.00;-1.00;-1.00;102008;1261;1003913;-81
2023/06/12 00:06:23;;;;;;;10.20;7.10;;;;;;;-128.00;-1.00;-1.00;102840;1264;1062708;-81
2023/06/12 00:08:50;;;;;;;10.80;6.90;;;;;;;-128.00;-1.00;-1.00;102601;1260;1005202;-80
2023/06/12 00:11:16;;;;;;;12.10;7.60;;;;;;;-128.00;-1.00;-1.00;102525;1260;1004806;-80
2023/06/12 00:13:44;;;;;;;11.80;8.20;;;;;;;-128.00;-1.00;-1.00;102615;1261;1004300;-79
2023/06/12 00:16:10;;;;;;;12.30;8.70;;;;;;;-128.00;-1.00;-1.00;102480;1259;1004654;-79
2023/06/12 00:18:40;;;;;;;12.00;7.00;;;;;;;-128.00;-1.00;-1.00;102632;1260;1004413;-80
2023/06/12 00:21:10;;;;;;;11.90;8.20;;;;;;;-128.00;-1.00;-1.00;102574;1262;1057755;-81
2023/06/12 00:23:37;;;;;;;11.80;7.70;;;;;;;-128.00;-1.00;-1.00;102550;1259;1060814;-80
2023/06/12 00:26:03;;;;;;;15.70;8.10;;;;;;;-128.00;-1.00;-1.00;102549;1260;1004484;-81
2023/06/12 00:28:31;;;;;;;11.80;7.10;;;;;;;-128.00;-1.00;-1.00;102576;1260;1003937;-80
2023/06/12 00:30:58;;;;;;;13.30;7.60;;;;;;;-128.00;-1.00;-1.00;102578;1260;1004117;-79
2023/06/12 00:33:24;;;;;;;10.00;7.30;;;;;;;-128.00;-1.00;-1.00;102625;1264;1004433;-80
2023/06/12 00:35:51;;;;;;;11.90;7.30;;;;;;;-128.00;-1.00;-1.00;102568;1261;1004616;-81
2023/06/12 00:38:19;;;;;;;12.00;7.20;;;;;;;-128.00;-1.00;-1.00;102641;1264;1004065;-81
2023/06/12 00:40:46;;;;;;;11.20;7.10;;;;;;;-128.00;-1.00;-1.00;102518;1260;1004426;-81
2023/06/12 00:43:13;;;;;;;10.00;6.90;;;;;;;-128.00;-1.00;-1.00;102608;1260;1004238;-81
2023/06/12 00:45:40;;;;;;;9.40;6.50;;;;;;;-128.00;-1.00;-1.00;102468;1261;1004053;-80
2023/06/12 00:48:07;;;;;;;11.20;6.70;;;;;;;-128.00;-1.00;-1.00;102566;1260;1004456;-79
2023/06/12 00:50:35;;;;;;;9.80;6.80;;;;;;;-128.00;-1.00;-1.00;102426;1260;1004462;-80
2023/06/12 00:53:01;;;;;;;9.20;6.50;;;;;;;-128.00;-1.00;-1.00;102388;1259;1004225;-81
2023/06/12 00:55:31;;;;;;;7.40;5.40;;;;;;;-128.00;-1.00;-1.00;102470;1264;1005200;-80
2023/06/12 00:57:59;;;;;;;13.50;6.70;;;;;;;-128.00;-1.00;-1.00;102468;1260;1057212;-80
2023/06/12 01:00:27;;;;;;;14.20;7.20;;;;;;;-128.00;-1.00;-1.00;102408;1260;1004033;-81
2023/06/12 01:02:58;;;;;;;12.10;7.20;;;;;;;-128.00;-1.00;-1.00;102517;1259;1005085;-81
2023/06/12 01:05:32;;;;;;;11.60;6.60;;;;;;;-128.00;-1.00;-1.00;102390;1261;1048984;-79
2023/06/12 01:08:18;;;;;;;12.60;7.20;;;;;;;-128.00;-1.00;-1.00;102380;1260;1063445;-79
2023/06/12 01:11:03;;;;;;;9.30;6.50;;;;;;;-128.00;-1.00;-1.00;102487;1260;1057762;-80
2023/06/12 01:13:30;;;;;;;11.90;7.00;;;;;;;-128.00;-1.00;-1.00;102454;1260;1059170;-80
2023/06/12 01:15:56;;;;;;;9.80;7.10;;;;;;;-128.00;-1.00;-1.00;102469;1260;1004706;-81
2023/06/12 01:18:23;;;;;;;9.50;7.50;;;;;;;-128.00;-1.00;-1.00;102459;1264;1004826;-81
2023/06/12 01:20:50;;;;;;;11.30;6.40;;;;;;;-128.00;-1.00;-1.00;102474;1260;1006051;-81
2023/06/12 01:23:39;;;;;;;13.20;8.00;;;;;;;-128.00;-1.00;-1.00;105134;1259;1004350;-80
2023/06/12 01:26:28;;;;;;;9.00;6.00;;;;;;;-128.00;-1.00;-1.00;105153;1259;1059314;-79
2023/06/12 01:29:28;;;;;;;11.50;7.00;;;;;;;-128.00;-1.00;-1.00;105129;1259;1045424;-78
2023/06/12 01:32:07;;;;;;;11.10;6.60;;;;;;;-128.00;-1.00;-1.00;105180;1259;1047548;-79
2023/06/12 01:34:50;;;;;;;10.80;6.50;;;;;;;-128.00;-1.00;-1.00;102901;1261;1063069;-81
2023/06/12 01:37:23;;;;;;;10.30;7.00;;;;;;;-128.00;-1.00;-1.00;102657;1257;1061357;-79
2023/06/12 01:39:55;;;;;;;9.70;6.20;;;;;;;-128.00;-1.00;-1.00;102601;1259;1059421;-81
2023/06/12 01:42:23;;;;;;;11.80;7.50;;;;;;;-128.00;-1.00;-1.00;102593;1263;1045156;-79
2023/06/12 01:44:50;;;;;;;8.20;6.30;;;;;;;-128.00;-1.00;-1.00;105218;1258;1003636;-81
2023/06/12 01:47:17;;;;;;;11.20;6.80;;;;;;;-128.00;-1.00;-1.00;105250;1258;1004272;-78
2023/06/12 01:49:43;;;;;;;9.50;5.90;;;;;;;-128.00;-1.00;-1.00;105224;1259;1004336;-79
2023/06/12 01:52:10;;;;;;;10.20;6.20;;;;;;;-128.00;-1.00;-1.00;104715;1259;1005975;-78
2023/06/12 01:54:36;;;;;;;10.10;6.40;;;;;;;-128.00;-1.00;-1.00;102627;1260;1003891;-80
2023/06/12 01:57:03;;;;;;;8.10;6.00;;;;;;;-128.00;-1.00;-1.00;102611;1259;1004558;-81
2023/06/12 01:59:29;;;;;;;10.60;6.50;;;;;;;-128.00;-1.00;-1.00;102623;1261;1006088;-80
2023/06/12 02:01:56;;;;;;;8.30;6.10;;;;;;;-128.00;-1.00;-1.00;102598;1259;1004948;-79
2023/06/12 02:04:22;;;;;;;19.00;7.00;;;;;;;-128.00;-1.00;-1.00;102602;1260;1004221;-81
2023/06/12 02:06:49;;;;;;;9.20;7.30;;;;;;;-128.00;-1.00;-1.00;102616;1260;1004551;-81
2023/06/12 02:09:15;;;;;;;12.40;7.00;;;;;;;-128.00;-1.00;-1.00;102411;1263;1006021;-80
2023/06/12 02:11:42;;;;;;;15.30;7.10;;;;;;;-128.00;-1.00;-1.00;102598;1259;1003662;-79
2023/06/12 02:14:08;;;;;;;10.60;6.30;;;;;;;-128.00;-1.00;-1.00;102652;1259;1004432;-81
2023/06/12 02:16:35;;;;;;;10.60;6.50;;;;;;;-128.00;-1.00;-1.00;102559;1263;1004349;-79
2023/06/12 02:19:01;;;;;;;14.00;7.80;;;;;;;-128.00;-1.00;-1.00;102623;1263;1003898;-81
2023/06/12 02:21:27;;;;;;;9.00;5.80;;;;;;;-128.00;-1.00;-1.00;102683;1259;1004698;-80
2023/06/12 02:23:54;;;;;;;8.50;6.40;;;;;;;-128.00;-1.00;-1.00;103181;1260;1005160;-81
2023/06/12 02:26:20;;;;;;;11.50;7.20;;;;;;;-128.00;-1.00;-1.00;103860;1259;1004772;-81
2023/06/12 02:28:47;;;;;;;13.30;6.50;;;;;;;-128.00;-1.00;-1.00;105189;1259;1003600;-81
2023/06/12 02:31:13;;;;;;;8.70;6.70;;;;;;;-128.00;-1.00;-1.00;105129;1259;1003776;-79
2023/06/12 02:33:40;;;;;;;10.70;6.50;;;;;;;-128.00;-1.00;-1.00;105197;1259;1003838;-78
2023/06/12 02:36:07;;;;;;;7.60;6.40;;;;;;;-128.00;-1.00;-1.00;105238;1259;1004095;-77
2023/06/12 02:38:34;;;;;;;13.90;5.90;;;;;;;-128.00;-1.00;-1.00;105202;1259;1004822;-78
2023/06/12 02:41:01;;;;;;;9.60;5.90;;;;;;;-128.00;-1.00;-1.00;102652;1259;1003414;-79
2023/06/12 02:43:27;;;;;;;10.20;6.40;;;;;;;-128.00;-1.00;-1.00;102588;1259;1006127;-80
2023/06/12 02:45:53;;;;;;;8.20;6.60;;;;;;;-128.00;-1.00;-1.00;102674;1259;1004345;-79
2023/06/12 02:48:20;;;;;;;12.50;6.60;;;;;;;-128.00;-1.00;-1.00;102602;1260;1004646;-79
2023/06/12 02:50:46;;;;;;;10.20;6.30;;;;;;;-128.00;-1.00;-1.00;102605;1259;1004048;-81
2023/06/12 02:53:13;;;;;;;9.30;7.00;;;;;;;-128.00;-1.00;-1.00;102429;1260;1004740;-79
2023/06/12 02:55:39;;;;;;;15.90;7.20;;;;;;;-128.00;-1.00;-1.00;102412;1259;1004288;-82
2023/06/12 02:58:07;;;;;;;10.60;6.10;;;;;;;-128.00;-1.00;-1.00;102646;1263;1005377;-81
2023/06/12 03:00:33;;;;;;;9.30;6.40;;;;;;;-128.00;-1.00;-1.00;102590;1260;1004867;-80
2023/06/12 03:03:00;;;;;;;11.70;7.30;;;;;;;-128.00;-1.00;-1.00;102606;1260;1005043;-81
2023/06/12 03:05:27;;;;;;;25.60;6.60;;;;;;;-128.00;-1.00;-1.00;102442;1259;1004579;-80
2023/06/12 03:07:54;;;;;;;10.90;7.10;;;;;;;-128.00;-1.00;-1.00;102626;1259;1005121;-80
2023/06/12 03:10:21;;;;;;;8.20;6.60;;;;;;;-128.00;-1.00;-1.00;102501;1263;1003992;-81
2023/06/12 03:12:48;;;;;;;9.50;6.40;;;;;;;-128.00;-1.00;-1.00;102582;1259;1004991;-80
2023/06/12 03:15:14;;;;;;;9.80;6.50;;;;;;;-128.00;-1.00;-1.00;102603;1263;1004094;-80
2023/06/12 03:17:41;;;;;;;10.00;6.20;;;;;;;-128.00;-1.00;-1.00;102623;1259;1005284;-81
2023/06/12 03:20:08;;;;;;;10.50;6.20;;;;;;;-128.00;-1.00;-1.00;102576;1259;1004207;-80
2023/06/12 03:22:35;;;;;;;9.60;6.70;;;;;;;-128.00;-1.00;-1.00;102596;1259;1005073;-79
2023/06/12 03:25:01;;;;;;;12.00;7.10;;;;;;;-128.00;-1.00;-1.00;102623;1259;1003938;-79
2023/06/12 03:27:31;;;;;;;9.50;6.20;;;;;;;-128.00;-1.00;-1.00;102596;1259;1004774;-80
2023/06/12 03:29:58;;;;;;;10.90;6.20;;;;;;;-128.00;-1.00;-1.00;102581;1259;1060920;-81
2023/06/12 03:32:24;;;;;;;9.30;7.20;;;;;;;-128.00;-1.00;-1.00;103687;1259;1004793;-79
2023/06/12 03:34:51;;;;;;;10.30;6.30;;;;;;;-128.00;-1.00;-1.00;102459;1260;1004520;-79
2023/06/12 03:37:18;;;;;;;9.40;6.10;;;;;;;-128.00;-1.00;-1.00;102355;1259;1004196;-81
2023/06/12 03:39:44;;;;;;;11.70;6.70;;;;;;;-128.00;-1.00;-1.00;103322;1259;1004550;-79
2023/06/12 03:42:11;;;;;;;10.60;6.30;;;;;;;-128.00;-1.00;-1.00;102529;1259;1004109;-80
2023/06/12 03:44:37;;;;;;;9.80;6.40;;;;;;;-128.00;-1.00;-1.00;102597;1259;1005428;-81
2023/06/12 03:47:03;;;;;;;6.90;5.90;;;;;;;-128.00;-1.00;-1.00;103519;1259;1004843;-81
2023/06/12 03:49:30;;;;;;;14.00;6.60;;;;;;;-128.00;-1.00;-1.00;102451;1260;1005876;-79
2023/06/12 03:51:56;;;;;;;9.30;6.30;;;;;;;-128.00;-1.00;-1.00;102484;1259;1004010;-80
2023/06/12 03:54:23;;;;;;;10.20;7.10;;;;;;;-128.00;-1.00;-1.00;102401;1264;1004766;-80
2023/06/12 03:56:49;;;;;;;9.90;6.00;;;;;;;-128.00;-1.00;-1.00;101934;1260;1005850;-79
2023/06/12 03:59:16;;;;;;;8.80;6.00;;;;;;;-128.00;-1.00;-1.00;102420;1259;1004828;-81
2023/06/12 04:01:42;;;;;;;15.10;6.60;;;;;;;-128.00;-1.00;-1.00;102437;1260;1004784;-79
2023/06/12 04:04:09;;;;;;;10.50;6.70;;;;;;;-128.00;-1.00;-1.00;102440;1260;1005065;-81
2023/06/12 04:06:40;;;;;;;13.80;6.20;;;;;;;-128.00;-1.00;-1.00;102423;1259;1004493;-80
2023/06/12 04:09:12;;;;;;;9.70;5.50;;;;;;;-128.00;-1.00;-1.00;102450;1260;1048751;-79
2023/06/12 04:11:39;;;;;;;10.90;5.40;;;;;;;-128.00;-1.00;-1.00;102472;1259;1051643;-79
2023/06/12 04:14:06;;;;;;;8.00;5.20;;;;;;;-128.00;-1.00;-1.00;102441;1259;1005139;-81
2023/06/12 04:16:32;;;;;;;9.70;6.00;;;;;;;-128.00;-1.00;-1.00;102423;1260;1004500;-81
2023/06/12 04:19:03;;;;;;;16.20;6.40;;;;;;;-128.00;-1.00;-1.00;102392;1259;1004674;-79
2023/06/12 04:21:32;;;;;;;7.60;5.70;;;;;;;-128.00;-1.00;-1.00;102500;1259;1048934;-81
2023/06/12 04:24:01;;;;;;;8.20;5.90;;;;;;;-128.00;-1.00;-1.00;102583;1262;1047164;-79
2023/06/12 04:26:27;;;;;;;10.70;5.50;;;;;;;-128.00;-1.00;-1.00;102554;1259;1064607;-81
2023/06/12 04:28:54;;;;;;;7.60;5.00;;;;;;;-128.00;-1.00;-1.00;102505;1259;1004598;-80
2023/06/12 04:31:21;;;;;;;8.90;6.30;;;;;;;-128.00;-1.00;-1.00;102552;1260;1003697;-81
2023/06/12 04:33:51;;;;;;;7.60;5.00;;;;;;;-128.00;-1.00;-1.00;102676;1259;1004818;-81
2023/06/12 04:36:18;;;;;;;7.60;5.60;;;;;;;-128.00;-1.00;-1.00;102674;1258;1047614;-81
2023/06/12 04:38:45;;;;;;;11.30;5.80;;;;;;;-128.00;-1.00;-1.00;102667;1258;1004748;-80
2023/06/12 04:41:11;;;;;;;5.80;4.90;;;;;;;-128.00;-1.00;-1.00;102627;1260;1004097;-81
2023/06/12 04:43:38;;;;;;;7.60;5.20;;;;;;;-128.00;-1.00;-1.00;102706;1258;1004478;-79
2023/06/12 04:46:07;;;;;;;9.70;5.40;;;;;;;-128.00;-1.00;-1.00;102664;1258;1005282;-81
2023/06/12 04:48:35;;;;;;;8.30;6.10;;;;;;;-128.00;-1.00;-1.00;102688;1262;1048128;-80
2023/06/12 04:51:02;;;;;;;7.20;5.30;;;;;;;-128.00;-1.00;-1.00;102576;1263;1005004;-81
2023/06/12 04:53:30;;;;;;;9.60;5.40;;;;;;;-128.00;-1.00;-1.00;102678;1259;1005123;-79
2023/06/12 04:55:58;;;;;;;12.40;5.00;;;;;;;-128.00;-1.00;-1.00;102665;1259;1005013;-82
2023/06/12 04:58:24;;;;;;;9.20;5.90;;;;;;;-128.00;-1.00;-1.00;102510;1263;1004369;-80
2023/06/12 05:00:55;;;;;;;13.70;8.20;;;;;;;-128.00;-1.00;-1.00;102662;1258;1005072;-79
2023/06/12 05:03:22;;;;;;;13.50;7.20;;;;;;;-128.00;-1.00;-1.00;102541;1257;1062039;-80
2023/06/12 05:05:48;;;;;;;17.20;9.00;;;;;;;-128.00;-1.00;-1.00;102526;1257;1003836;-82
2023/06/12 05:08:15;;;;;;;16.30;9.70;;;;;;;-128.00;-1.00;-1.00;102645;1259;1004742;-81
2023/06/12 05:10:41;;;;;;;26.70;10.90;;;;;;;-128.00;-1.00;-1.00;102640;1261;1005662;-81
2023/06/12 05:13:08;;;;;;;30.10;15.90;;;;;;;-128.00;-1.00;-1.00;102721;1261;1005852;-81
2023/06/12 05:15:34;;;;;;;54.60;26.30;;;;;;;-128.00;-1.00;-1.00;102630;1259;1004353;-80
2023/06/12 05:18:01;;;;;;;96.30;44.60;;;;;;;-128.00;-1.00;-1.00;102650;1258;1004554;-82
2023/06/12 05:20:27;;;;;;;76.90;37.10;;;;;;;-128.00;-1.00;-1.00;102601;1259;1004488;-80
2023/06/12 05:22:54;;;;;;;42.90;20.40;;;;;;;-128.00;-1.00;-1.00;102570;1259;1003904;-80
2023/06/12 05:25:20;;;;;;;36.00;18.50;;;;;;;-128.00;-1.00;-1.00;102460;1259;1004389;-79
2023/06/12 05:27:47;;;;;;;42.20;19.60;;;;;;;-128.00;-1.00;-1.00;102606;1258;1005435;-80
2023/06/12 05:30:13;;;;;;;34.30;19.90;;;;;;;-128.00;-1.00;-1.00;102611;1263;1004036;-80
2023/06/12 05:32:40;;;;;;;33.40;21.30;;;;;;;-128.00;-1.00;-1.00;102627;1259;1006077;-80
2023/06/12 05:35:07;;;;;;;15.10;11.00;;;;;;;-128.00;-1.00;-1.00;102540;1260;1004462;-80
2023/06/12 05:37:34;;;;;;;15.70;9.20;;;;;;;-128.00;-1.00;-1.00;102613;1259;1003967;-80
2023/06/12 05:40:00;;;;;;;14.20;7.60;;;;;;;-128.00;-1.00;-1.00;102647;1259;1005397;-81
2023/06/12 05:42:27;;;;;;;13.80;6.90;;;;;;;-128.00;-1.00;-1.00;102411;1262;1004532;-81
2023/06/12 05:44:53;;;;;;;11.30;7.70;;;;;;;-128.00;-1.00;-1.00;102487;1259;1005153;-79
2023/06/12 05:47:20;;;;;;;10.80;6.00;;;;;;;-128.00;-1.00;-1.00;102089;1259;1005081;-81
2023/06/12 05:49:46;;;;;;;10.50;7.00;;;;;;;-128.00;-1.00;-1.00;102587;1259;1005375;-82
2023/06/12 05:52:12;;;;;;;11.70;6.20;;;;;;;-128.00;-1.00;-1.00;102562;1259;1004719;-82
2023/06/12 05:54:39;;;;;;;8.20;4.50;;;;;;;-128.00;-1.00;-1.00;103210;1262;1004357;-80
2023/06/12 05:57:06;;;;;;;10.80;5.20;;;;;;;-128.00;-1.00;-1.00;102137;1259;1004679;-82
2023/06/12 05:59:32;;;;;;;10.70;3.90;;;;;;;-128.00;-1.00;-1.00;102595;1260;1005622;-82
2023/06/12 06:01:58;;;;;;;3.90;2.60;;;;;;;-128.00;-1.00;-1.00;102866;1263;1006323;-80
2023/06/12 06:04:25;;;;;;;3.70;2.10;;;;;;;-128.00;-1.00;-1.00;103250;1259;1004782;-80
2023/06/12 06:06:53;;;;;;;7.10;2.50;;;;;;;-128.00;-1.00;-1.00;102865;1259;1005033;-80
2023/06/12 06:09:20;;;;;;;5.00;1.90;;;;;;;-128.00;-1.00;-1.00;102884;1262;1004353;-80
2023/06/12 06:11:47;;;;;;;7.50;2.60;;;;;;;-128.00;-1.00;-1.00;102833;1259;1005312;-80
2023/06/12 06:14:13;;;;;;;4.40;2.70;;;;;;;-128.00;-1.00;-1.00;102413;1259;1004249;-78
2023/06/12 06:16:40;;;;;;;3.30;2.00;;;;;;;-128.00;-1.00;-1.00;102345;1259;1005060;-78
2023/06/12 06:19:08;;;;;;;8.20;2.80;;;;;;;-128.00;-1.00;-1.00;102428;1259;1003965;-77
2023/06/12 06:21:35;;;;;;;5.00;2.20;;;;;;;-128.00;-1.00;-1.00;102409;1259;1004302;-83
2023/06/12 06:24:02;;;;;;;3.00;2.40;;;;;;;-128.00;-1.00;-1.00;103304;1259;1004684;-80
2023/06/12 06:26:29;;;;;;;6.20;2.10;;;;;;;-128.00;-1.00;-1.00;103247;1259;1004694;-78
2023/06/12 06:28:55;;;;;;;8.00;2.00;;;;;;;-128.00;-1.00;-1.00;102518;1260;1004989;-79
2023/06/12 06:31:22;;;;;;;3.30;2.50;;;;;;;-128.00;-1.00;-1.00;102535;1259;1003998;-79
2023/06/12 06:33:48;;;;;;;3.50;2.50;;;;;;;-128.00;-1.00;-1.00;102441;1259;1005207;-80
2023/06/12 06:36:15;;;;;;;3.50;2.20;;;;;;;-128.00;-1.00;-1.00;102353;1264;1004571;-79
2023/06/12 06:38:41;;;;;;;5.20;2.40;;;;;;;-128.00;-1.00;-1.00;103136;1259;1004236;-81
2023/06/12 06:41:08;;;;;;;4.10;2.30;;;;;;;-128.00;-1.00;-1.00;103162;1262;1006636;-80
2023/06/12 06:43:34;;;;;;;5.40;2.20;;;;;;;-128.00;-1.00;-1.00;103061;1259;1004068;-81
2023/06/12 06:46:01;;;;;;;6.50;2.00;;;;;;;-128.00;-1.00;-1.00;103013;1259;1003959;-82
2023/06/12 06:48:28;;;;;;;3.40;2.00;;;;;;;-128.00;-1.00;-1.00;103013;1258;1005409;-78
2023/06/12 06:50:54;;;;;;;6.30;2.00;;;;;;;-128.00;-1.00;-1.00;102893;1260;1004255;-80
2023/06/12 06:53:21;;;;;;;4.40;2.60;;;;;;;-128.00;-1.00;-1.00;103049;1259;1004047;-81
2023/06/12 06:55:47;;;;;;;3.60;2.00;;;;;;;-128.00;-1.00;-1.00;103109;1259;1005055;-81
2023/06/12 06:58:13;;;;;;;3.10;2.30;;;;;;;-128.00;-1.00;-1.00;103286;1259;1005695;-81
2023/06/12 07:00:40;;;;;;;7.90;2.20;;;;;;;-128.00;-1.00;-1.00;103248;1259;1004476;-79
2023/06/12 07:03:08;;;;;;;8.50;2.90;;;;;;;-128.00;-1.00;-1.00;103126;1262;1004788;-79
2023/06/12 07:05:34;;;;;;;3.10;2.10;;;;;;;-128.00;-1.00;-1.00;103029;1259;1004094;-81
2023/06/12 07:08:01;;;;;;;8.50;2.50;;;;;;;-128.00;-1.00;-1.00;103167;1259;1005151;-79
2023/06/12 07:10:27;;;;;;;3.10;2.50;;;;;;;-128.00;-1.00;-1.00;102914;1260;1005294;-79
2023/06/12 07:12:56;;;;;;;7.80;2.70;;;;;;;-128.00;-1.00;-1.00;103118;1259;1004729;-79
2023/06/12 07:15:26;;;;;;;4.50;2.20;;;;;;;-128.00;-1.00;-1.00;103180;1260;1047931;-81
2023/06/12 07:17:53;;;;;;;4.70;2.20;;;;;;;-128.00;-1.00;-1.00;103309;1260;1064715;-81
2023/06/12 07:20:20;;;;;;;4.70;2.00;;;;;;;-128.00;-1.00;-1.00;103170;1258;1006131;-79
2023/06/12 07:22:46;;;;;;;5.80;1.80;;;;;;;-128.00;-1.00;-1.00;102951;1260;1005252;-81
2023/06/12 07:25:12;;;;;;;3.90;2.00;;;;;;;-128.00;-1.00;-1.00;103130;1259;1004521;-79
2023/06/12 07:27:39;;;;;;;4.10;2.30;;;;;;;-128.00;-1.00;-1.00;103008;1259;1004866;-80
2023/06/12 07:30:08;;;;;;;2.60;1.70;;;;;;;-128.00;-1.00;-1.00;104788;1259;1005445;-79
2023/06/12 07:32:35;;;;;;;4.50;2.30;;;;;;;-128.00;-1.00;-1.00;105135;1259;1057817;-79
2023/06/12 07:35:01;;;;;;;4.50;2.00;;;;;;;-128.00;-1.00;-1.00;104932;1259;1004609;-81
2023/06/12 07:37:29;;;;;;;7.20;2.50;;;;;;;-128.00;-1.00;-1.00;103112;1259;1004024;-79
2023/06/12 07:39:55;;;;;;;3.80;2.50;;;;;;;-128.00;-1.00;-1.00;103186;1259;1005326;-80
2023/06/12 07:42:22;;;;;;;3.30;1.80;;;;;;;-128.00;-1.00;-1.00;103244;1261;1004401;-78
2023/06/12 07:44:48;;;;;;;3.20;2.10;;;;;;;-128.00;-1.00;-1.00;103041;1259;1004739;-78
2023/06/12 07:47:15;;;;;;;7.90;2.30;;;;;;;-128.00;-1.00;-1.00;103106;1260;1004153;-80
2023/06/12 07:49:41;;;;;;;4.40;2.40;;;;;;;-128.00;-1.00;-1.00;102422;1260;1004074;-80
2023/06/12 07:52:08;;;;;;;8.30;2.20;;;;;;;-128.00;-1.00;-1.00;103534;1259;1004218;-80
2023/06/12 07:54:34;;;;;;;4.00;2.10;;;;;;;-128.00;-1.00;-1.00;102626;1260;1005153;-78
2023/06/12 07:57:01;;;;;;;5.60;2.20;;;;;;;-128.00;-1.00;-1.00;102945;1259;1004477;-78
2023/06/12 07:59:27;;;;;;;4.30;2.30;;;;;;;-128.00;-1.00;-1.00;102731;1259;1003840;-81
2023/06/12 08:01:55;;;;;;;6.40;2.20;;;;;;;-128.00;-1.00;-1.00;102234;1259;1004902;-78
2023/06/12 08:04:21;;;;;;;3.60;2.00;;;;;;;-128.00;-1.00;-1.00;102366;1262;1004957;-81
2023/06/12 08:06:48;;;;;;;5.50;2.10;;;;;;;-128.00;-1.00;-1.00;102249;1259;1003521;-81
2023/06/12 08:09:14;;;;;;;5.00;2.10;;;;;;;-128.00;-1.00;-1.00;102277;1262;1005457;-81
2023/06/12 08:11:41;;;;;;;4.90;2.30;;;;;;;-128.00;-1.00;-1.00;102309;1259;1004054;-81
2023/06/12 08:14:08;;;;;;;4.50;1.90;;;;;;;-128.00;-1.00;-1.00;103076;1259;1004331;-81
2023/06/12 08:16:35;;;;;;;5.70;2.90;;;;;;;-128.00;-1.00;-1.00;102194;1264;1004266;-81
2023/06/12 08:19:01;;;;;;;9.00;2.00;;;;;;;-128.00;-1.00;-1.00;102515;1258;1004177;-78
2023/06/12 08:21:28;;;;;;;2.90;1.90;;;;;;;-128.00;-1.00;-1.00;103025;1263;1005439;-81
2023/06/12 08:23:55;;;;;;;2.90;1.90;;;;;;;-128.00;-1.00;-1.00;103163;1259;1005846;-81
2023/06/12 08:26:24;;;;;;;4.50;2.00;;;;;;;-128.00;-1.00;-1.00;103149;1259;1004247;-81
2023/06/12 08:28:50;;;;;;;7.40;1.90;;;;;;;-128.00;-1.00;-1.00;103071;1259;1049379;-79
2023/06/12 08:31:17;;;;;;;4.60;1.70;;;;;;;-128.00;-1.00;-1.00;103028;1259;1005659;-79
2023/06/12 08:33:43;;;;;;;3.80;1.80;;;;;;;-128.00;-1.00;-1.00;103161;1262;1006292;-81
2023/06/12 08:36:12;;;;;;;2.60;1.60;;;;;;;-128.00;-1.00;-1.00;103128;1258;1007453;-79
2023/06/12 08:38:38;;;;;;;9.40;2.20;;;;;;;-128.00;-1.00;-1.00;102987;1259;1044751;-79
2023/06/12 08:41:05;;;;;;;6.30;2.30;;;;;;;-128.00;-1.00;-1.00;103122;1259;1004542;-82
2023/06/12 08:43:32;;;;;;;4.30;1.80;;;;;;;-128.00;-1.00;-1.00;102878;1259;1006512;-81
2023/06/12 08:45:59;;;;;;;7.40;2.00;;;;;;;-128.00;-1.00;-1.00;102904;1260;1004236;-81
2023/06/12 08:48:26;;;;;;;3.60;1.40;;;;;;;-128.00;-1.00;-1.00;102889;1259;1005162;-82
2023/06/12 08:50:52;;;;;;;10.20;2.00;;;;;;;-128.00;-1.00;-1.00;102817;1259;1004503;-82
2023/06/12 08:53:19;;;;;;;7.20;2.10;;;;;;;-128.00;-1.00;-1.00;102688;1263;1005489;-81
2023/06/12 08:55:45;;;;;;;4.70;1.70;;;;;;;-128.00;-1.00;-1.00;102844;1259;1005003;-79
2023/06/12 08:58:12;;;;;;;4.60;2.10;;;;;;;-128.00;-1.00;-1.00;102788;1260;1005119;-81
2023/06/12 09:00:38;;;;;;;5.10;2.10;;;;;;;-128.00;-1.00;-1.00;102795;1259;1005064;-80
2023/06/12 09:03:06;;;;;;;3.10;1.60;;;;;;;-128.00;-1.00;-1.00;102835;1258;1004439;-81
2023/06/12 09:05:34;;;;;;;6.30;2.60;;;;;;;-128.00;-1.00;-1.00;102771;1260;1004093;-81
2023/06/12 09:08:00;;;;;;;3.90;1.80;;;;;;;-128.00;-1.00;-1.00;102778;1259;1004963;-82
2023/06/12 09:10:27;;;;;;;2.90;1.70;;;;;;;-128.00;-1.00;-1.00;102826;1259;1005021;-80
2023/06/12 09:12:54;;;;;;;3.00;1.80;;;;;;;-128.00;-1.00;-1.00;102903;1259;1004454;-81
2023/06/12 09:15:20;;;;;;;8.40;1.60;;;;;;;-128.00;-1.00;-1.00;102868;1260;1005115;-81
2023/06/12 09:17:51;;;;;;;3.30;1.90;;;;;;;-128.00;-1.00;-1.00;103184;1258;1004653;-82
2023/06/12 09:20:29;;;;;;;3.30;1.70;;;;;;;-128.00;-1.00;-1.00;102940;1260;1064689;-79
2023/06/12 09:23:00;;;;;;;4.20;1.70;;;;;;;-128.00;-1.00;-1.00;103233;1262;1057529;-79
2023/06/12 09:25:32;;;;;;;3.60;1.80;;;;;;;-128.00;-1.00;-1.00;103091;1265;1058531;-79
2023/06/12 09:27:59;;;;;;;3.90;1.70;;;;;;;-128.00;-1.00;-1.00;103219;1259;1045389;-79
2023/06/12 09:30:25;;;;;;;4.70;1.60;;;;;;;-128.00;-1.00;-1.00;103058;1259;1004471;-82
2023/06/12 09:32:52;;;;;;;4.80;1.70;;;;;;;-128.00;-1.00;-1.00;102863;1259;1004266;-82
2023/06/12 09:35:18;;;;;;;3.50;2.10;;;;;;;-128.00;-1.00;-1.00;102899;1259;1005965;-82
2023/06/12 09:37:45;;;;;;;9.30;2.00;;;;;;;-128.00;-1.00;-1.00;102833;1259;1004366;-82
2023/06/12 09:40:15;;;;;;;6.10;1.90;;;;;;;-128.00;-1.00;-1.00;102668;1264;1004928;-80
2023/06/12 09:42:42;;;;;;;4.50;1.80;;;;;;;-128.00;-1.00;-1.00;102774;1263;1050446;-80
2023/06/12 09:45:16;;;;;;;4.00;1.80;;;;;;;-128.00;-1.00;-1.00;102865;1259;1003836;-81
2023/06/12 09:47:44;;;;;;;4.90;1.80;;;;;;;-128.00;-1.00;-1.00;103071;1259;1058201;-81
2023/06/12 09:50:12;;;;;;;3.90;1.60;;;;;;;-128.00;-1.00;-1.00;102886;1260;1062872;-79
2023/06/12 09:52:40;;;;;;;6.60;2.30;;;;;;;-128.00;-1.00;-1.00;102716;1259;1003982;-82
2023/06/12 09:55:08;;;;;;;4.60;1.60;;;;;;;-128.00;-1.00;-1.00;102864;1262;1004955;-82
2023/06/12 09:57:35;;;;;;;3.90;1.30;;;;;;;-128.00;-1.00;-1.00;102981;1260;1004438;-82
2023/06/12 10:00:05;;;;;;;4.30;2.00;;;;;;;-128.00;-1.00;-1.00;102582;1258;1003981;-81
2023/06/12 10:02:31;;;;;;;8.70;1.70;;;;;;;-128.00;-1.00;-1.00;102608;1259;1059341;-82
2023/06/12 10:05:20;;;;;;;3.80;1.70;;;;;;;-128.00;-1.00;-1.00;102696;1260;1004635;-81
2023/06/12 10:07:52;;;;;;;;;;;;;;;-128.00;-1.00;-1.00;102870;1263;1046297;-80
2023/06/12 10:10:19;;;;;;;6.80;2.00;;;;;;;-128.00;-1.00;-1.00;102608;1259;1061764;-80
2023/06/12 10:12:45;;;;;;;2.90;1.60;;;;;;;-128.00;-1.00;-1.00;102515;1262;1004151;-80
2023/06/12 10:15:12;;;;;;;4.50;1.60;;;;;;;-128.00;-1.00;-1.00;102542;1259;1003869;-80
2023/06/12 10:17:39;;;;;;;2.70;1.60;;;;;;;-128.00;-1.00;-1.00;102612;1260;1004341;-82
2023/06/12 10:20:09;;;;;;;2.60;1.80;;;;;;;-128.00;-1.00;-1.00;102571;1263;1003889;-80
2023/06/12 10:22:36;;;;;;;9.00;1.80;;;;;;;-128.00;-1.00;-1.00;102555;1259;1063951;-81
2023/06/12 10:25:03;;;;;;;4.80;1.80;;;;;;;-128.00;-1.00;-1.00;102515;1259;1004259;-80
2023/06/12 10:27:30;;;;;;;4.50;1.60;;;;;;;-128.00;-1.00;-1.00;102602;1262;1003772;-80
2023/06/12 10:29:57;;;;;;;2.30;1.60;;;;;;;-128.00;-1.00;-1.00;102439;1259;1004468;-83
2023/06/12 10:32:23;;;;;;;5.60;1.70;;;;;;;-128.00;-1.00;-1.00;102509;1259;1004604;-81
2023/06/12 10:34:53;;;;;;;2.70;1.60;;;;;;;-128.00;-1.00;-1.00;102612;1259;1004868;-81
2023/06/12 10:37:39;;;;;;;4.30;1.40;;;;;;;-128.00;-1.00;-1.00;102584;1262;1058152;-82
2023/06/12 10:40:10;;;;;;;4.20;2.10;;;;;;;-128.00;-1.00;-1.00;102392;1259;1059801;-82
2023/06/12 10:42:44;;;;;;;3.20;1.50;;;;;;;-128.00;-1.00;-1.00;102500;1259;1045087;-82
2023/06/12 10:45:22;;;;;;;4.10;1.90;;;;;;;-128.00;-1.00;-1.00;102498;1259;1047279;-80
2023/06/12 10:48:07;;;;;;;4.60;1.50;;;;;;;-128.00;-1.00;-1.00;102650;1259;1063113;-83
2023/06/12 10:50:35;;;;;;;2.80;1.80;;;;;;;-128.00;-1.00;-1.00;102480;1260;1057544;-82
2023/06/12 10:53:09;;;;;;;5.00;2.30;;;;;;;-128.00;-1.00;-1.00;102263;1259;1004324;-81
2023/06/12 10:55:36;;;;;;;7.20;1.80;;;;;;;-128.00;-1.00;-1.00;102614;1259;1044153;-80
2023/06/12 10:58:16;;;;;;;11.40;2.20;;;;;;;-128.00;-1.00;-1.00;102665;1264;1004346;-82
2023/06/12 11:00:45;;;;;;;13.00;2.60;;;;;;;-128.00;-1.00;-1.00;103630;1260;1062431;-80
2023/06/12 11:03:13;;;;;;;4.10;1.80;;;;;;;-128.00;-1.00;-1.00;102810;1258;1061031;-82
2023/06/12 11:05:51;;;;;;;4.10;1.90;;;;;;;-128.00;-1.00;-1.00;102770;1260;1004285;-82
2023/06/12 11:08:18;;;;;;;2.70;1.70;;;;;;;-128.00;-1.00;-1.00;102782;1259;1045024;-80
2023/06/12 11:10:44;;;;;;;5.10;2.50;;;;;;;-128.00;-1.00;-1.00;102610;1265;1004277;-80
2023/06/12 11:13:11;;;;;;;7.20;2.00;;;;;;;-128.00;-1.00;-1.00;102703;1260;1004673;-82
2023/06/12 11:15:45;;;;;;;4.70;1.90;;;;;;;-128.00;-1.00;-1.00;102732;1260;1004514;-81
2023/06/12 11:18:12;;;;;;;6.20;1.90;;;;;;;-128.00;-1.00;-1.00;102876;1260;1059100;-79